Time;durP1;ratioP1;P1;durP2;ratioP2;P2;SDS_P1;SDS_P2;PMS_P1;PMS_P2;Temp;Humidity;BMP_temperature;BMP_pressure;BME280_temperature;BME280_humidity;BME280_pressure;Samples;Min_cycle;Max_cycle;Signal;HPM_P1;HPM_P2
2022/06/01 03:56:07;;;;;;;20.35;12.18;;;;;;;17.10;84.07;100416.09;5606348;31;78869;-54
2022/06/01 03:59:09;;;;;;;29.10;13.30;;;;;;;17.10;84.07;100416.09;5584023;31;34180;-55
2022/06/01 04:02:13;;;;;;;25.08;18.27;;;;;;;16.64;90.64;100412.16;5584176;31;33908;-55
2022/06/01 04:05:18;;;;;;;26.62;19.65;;;;;;;16.71;92.49;100408.16;5584156;32;34350;-55
2022/06/01 04:08:21;;;;;;;29.08;18.35;;;;;;;16.81;92.02;100405.16;5583988;32;33678;-55
2022/06/01 04:11:23;;;;;;;26.80;18.45;;;;;;;16.80;92.01;100401.66;5584083;31;33670;-55
2022/06/01 04:14:25;;;;;;;24.77;16.90;;;;;;;17.01;94.67;100409.91;5583779;32;34272;-55
2022/06/01 04:17:28;;;;;;;19.87;15.43;;;;;;;17.16;92.16;100395.06;5584120;32;33579;-55
2022/06/01 04:20:31;;;;;;;25.12;17.33;;;;;;;17.21;93.51;100392.16;5583833;32;33655;-54
2022/06/01 04:23:33;;;;;;;22.05;17.30;;;;;;;17.31;88.23;100399.13;5584013;32;33607;-55
2022/06/01 04:26:36;;;;;;;24.23;18.23;;;;;;;17.13;91.52;100395.69;5583812;31;33578;-54
2022/06/01 04:29:39;;;;;;;22.23;16.80;;;;;;;17.08;89.32;100410.19;5584038;32;33578;-55
2022/06/01 04:32:44;;;;;;;22.60;16.23;;;;;;;16.96;92.95;100409.28;5583306;32;33732;-55
2022/06/01 04:35:46;;;;;;;24.05;17.30;;;;;;;16.97;93.33;100411.66;5581173;31;33702;-54
2022/06/01 04:38:49;;;;;;;26.42;18.45;;;;;;;17.14;92.53;100413.53;5577361;31;33578;-55
2022/06/01 04:41:51;;;;;;;23.52;19.15;;;;;;;17.21;91.89;100415.75;5583477;32;33557;-55
2022/06/01 04:44:53;;;;;;;24.92;17.37;;;;;;;17.38;91.34;100427.34;5583682;31;34315;-55
2022/06/01 04:47:55;;;;;;;22.65;18.48;;;;;;;17.46;94.28;100424.91;5583526;31;33557;-55
2022/06/01 04:50:59;;;;;;;26.52;20.83;;;;;;;17.62;95.14;100418.62;5583496;31;33580;-55
2022/06/01 04:54:01;;;;;;;31.10;21.67;;;;;;;17.71;93.86;100418.56;5582905;32;33585;-55
2022/06/01 04:57:04;;;;;;;26.37;20.42;;;;;;;17.84;92.46;100419.47;5583472;31;34353;-55
2022/06/01 05:00:09;;;;;;;33.50;23.40;;;;;;;17.91;93.17;100414.31;5577994;31;33340;-55
2022/06/01 05:03:12;;;;;;;33.08;24.08;;;;;;;17.99;91.84;100408.06;5583038;32;34059;-55
2022/06/01 05:06:15;;;;;;;30.55;23.20;;;;;;;17.95;90.34;100411.78;5574534;32;33813;-55
2022/06/01 05:09:17;;;;;;;29.83;23.92;;;;;;;17.97;90.59;100401.38;5560366;32;33707;-55
2022/06/01 05:12:20;;;;;;;34.33;24.75;;;;;;;17.96;93.31;100405.22;5550770;32;33625;-54
2022/06/01 05:15:22;;;;;;;31.20;24.35;;;;;;;18.00;89.35;100404.22;5565532;32;33581;-54
2022/06/01 05:18:25;;;;;;;25.05;19.80;;;;;;;17.98;90.96;100411.09;5566719;32;34363;-55
2022/06/01 05:21:28;;;;;;;32.22;23.38;;;;;;;18.06;92.39;100410.25;5564086;32;32981;-54
2022/06/01 05:24:30;;;;;;;34.38;24.65;;;;;;;18.19;90.12;100405.72;5570127;32;33714;-55
2022/06/01 05:27:32;;;;;;;29.80;23.55;;;;;;;18.13;90.75;100415.16;5569163;32;33727;-55
2022/06/01 05:30:35;;;;;;;33.70;23.90;;;;;;;18.10;89.18;100416.59;5569686;32;34308;-54
2022/06/01 05:33:44;;;;;;;29.77;24.37;;;;;;;18.07;88.44;100422.69;5569756;32;33634;-55
2022/06/01 05:36:47;;;;;;;32.03;24.17;;;;;;;18.05;89.04;100436.59;5569920;31;33563;-55
2022/06/01 05:39:49;;;;;;;36.58;25.80;;;;;;;18.10;89.18;100432.88;5570237;32;33797;-55
2022/06/01 05:42:51;;;;;;;32.53;25.10;;;;;;;18.13;89.56;100437.66;5569905;32;33747;-55
2022/06/01 05:45:53;;;;;;;35.28;26.70;;;;;;;18.16;90.07;100439.72;5569727;32;33461;-55
2022/06/01 05:48:56;;;;;;;32.22;24.90;;;;;;;18.18;89.35;100450.22;5569372;32;33232;-55
2022/06/01 05:51:58;;;;;;;29.58;24.05;;;;;;;18.23;88.73;100453.53;5568537;32;33734;-55
2022/06/01 05:55:01;;;;;;;21.75;16.15;;;;;;;18.30;90.10;100448.38;5569430;32;33601;-55
2022/06/01 05:58:17;;;;;;;21.00;17.75;;;;;;;18.45;92.83;100447.00;5570075;32;33230;-54
2022/06/01 06:01:22;;;;;;;17.27;13.23;;;;;;;18.58;86.00;100449.78;5569791;32;33413;-54
2022/06/01 06:04:24;;;;;;;11.55;9.48;;;;;;;18.63;85.50;100453.09;5570076;32;33935;-54
2022/06/01 06:07:26;;;;;;;16.25;9.27;;;;;;;18.50;84.75;100452.22;5569604;32;33704;-55
2022/06/01 06:10:29;;;;;;;18.02;11.02;;;;;;;18.50;85.91;100465.78;5569765;32;34299;-55
2022/06/01 06:13:31;;;;;;;15.38;11.07;;;;;;;18.40;85.73;100457.25;5569053;32;33669;-55
2022/06/01 06:16:36;;;;;;;14.25;9.77;;;;;;;18.39;85.57;100456.47;5568004;32;33896;-55
2022/06/01 06:19:38;;;;;;;14.10;9.80;;;;;;;18.44;85.47;100461.72;5569177;32;34225;-54
2022/06/01 06:22:41;;;;;;;12.90;9.23;;;;;;;18.40;85.05;100463.47;5569413;32;33607;-55
2022/06/01 06:25:43;;;;;;;13.77;8.82;;;;;;;18.35;84.15;100460.19;5569654;32;34368;-54
2022/06/01 06:28:46;;;;;;;12.07;8.85;;;;;;;18.32;84.89;100461.63;5569257;32;33719;-55
2022/06/01 06:31:49;;;;;;;12.18;8.70;;;;;;;18.43;83.90;100453.87;5569763;32;34279;-55
2022/06/01 06:34:53;;;;;;;10.25;8.05;;;;;;;18.45;83.14;100463.28;5569191;32;34290;-56
2022/06/01 06:37:55;;;;;;;11.90;7.95;;;;;;;18.44;83.75;100469.03;5568945;32;34439;-54
2022/06/01 06:40:59;;;;;;;10.75;7.55;;;;;;;18.41;82.35;100470.50;5569182;32;33735;-54
2022/06/01 06:44:02;;;;;;;7.85;6.82;;;;;;;18.41;82.29;100480.56;5568853;32;34312;-54
2022/06/01 06:47:05;;;;;;;11.00;7.57;;;;;;;18.46;83.15;100480.38;5568265;32;33685;-55
2022/06/01 06:50:10;;;;;;;8.90;6.68;;;;;;;18.51;82.49;100486.41;5568819;32;34287;-55
2022/06/01 06:53:12;;;;;;;7.73;5.87;;;;;;;18.55;82.87;100491.97;5567817;32;33754;-55
2022/06/01 06:56:17;;;;;;;11.48;6.57;;;;;;;18.57;81.90;100495.13;5569035;32;33683;-54
2022/06/01 06:59:20;;;;;;;7.32;6.20;;;;;;;18.53;81.16;100497.72;5568447;32;33599;-55
2022/06/01 07:02:22;;;;;;;10.65;6.87;;;;;;;18.52;80.53;100503.50;5568592;32;34334;-54
2022/06/01 07:08:48;;;;;;;7.97;6.43;;;;;;;18.69;nan;100510.72;5568210;32;33696;-56
2022/06/01 07:11:51;;;;;;;12.90;7.35;;;;;;;18.89;79.02;100503.69;5568709;32;33642;-56
2022/06/01 07:14:54;;;;;;;9.52;7.57;;;;;;;18.88;77.87;100508.34;5569016;32;33723;-56
2022/06/01 07:17:56;;;;;;;12.68;8.25;;;;;;;18.95;78.10;100511.31;5568841;32;33677;-55
2022/06/01 07:20:59;;;;;;;11.68;8.70;;;;;;;18.96;78.71;100510.19;5556500;32;33320;-56
2022/06/01 07:24:08;;;;;;;14.15;9.85;;;;;;;18.92;79.82;100532.91;5548826;32;34355;-55
2022/06/01 07:27:10;;;;;;;15.60;10.27;;;;;;;18.76;78.97;100528.06;5553383;32;33208;-55
2022/06/01 07:30:13;;;;;;;13.27;9.88;;;;;;;18.68;79.93;100528.91;5566652;32;33573;-56
2022/06/01 07:33:17;;;;;;;13.43;10.07;;;;;;;18.73;80.82;100523.31;5555164;32;33822;-55
2022/06/01 07:36:20;;;;;;;14.57;11.25;;;;;;;18.84;79.43;100523.72;5548955;32;34377;-55
2022/06/01 07:46:04;;;;;;;15.35;12.00;;;;;;;19.23;77.04;100522.38;5568529;32;34299;-55
2022/06/01 07:49:07;;;;;;;13.18;10.68;;;;;;;19.36;76.00;100517.00;5568572;32;34296;-54
2022/06/01 07:52:29;;;;;;;11.00;8.15;;;;;;;19.62;75.60;100522.94;5558501;32;34340;-54
2022/06/01 07:55:32;;;;;;;9.23;7.30;;;;;;;19.78;75.96;100509.53;5548592;32;33629;-54
2022/06/01 07:58:36;;;;;;;13.18;7.70;;;;;;;19.79;73.70;100516.53;5547678;32;33875;-55
2022/06/01 08:01:39;;;;;;;11.93;7.18;;;;;;;19.91;73.34;100530.16;5554143;32;34468;-55
2022/06/01 08:04:41;;;;;;;10.85;6.28;;;;;;;20.11;72.39;100524.94;5567797;32;33689;-55
2022/06/01 08:07:44;;;;;;;8.38;5.40;;;;;;;20.21;73.61;100531.87;5568175;32;33669;-55
2022/06/01 08:10:46;;;;;;;6.20;4.80;;;;;;;20.31;71.97;100536.84;5566985;32;33679;-55
2022/06/01 08:13:48;;;;;;;7.55;4.30;;;;;;;20.31;69.58;100539.56;5567200;32;34243;-55
2022/06/01 08:16:51;;;;;;;6.20;3.97;;;;;;;20.39;71.38;100538.63;5568093;32;33691;-56
2022/06/01 08:19:53;;;;;;;6.20;4.68;;;;;;;20.47;68.81;100540.47;5567942;32;33720;-55
2022/06/01 08:23:01;;;;;;;8.05;4.75;;;;;;;20.48;68.67;100541.25;5565000;32;34428;-55
2022/06/01 08:26:03;;;;;;;6.55;3.95;;;;;;;20.44;67.45;100538.41;5555875;32;33627;-54
2022/06/01 08:29:05;;;;;;;12.30;4.57;;;;;;;20.53;67.25;100532.84;5566743;32;33693;-54
2022/06/01 08:32:08;;;;;;;6.32;3.70;;;;;;;20.61;69.32;100538.19;5564507;32;33623;-55
2022/06/01 08:35:16;;;;;;;7.22;4.32;;;;;;;20.78;69.40;100542.56;5560055;32;33906;-56
2022/06/01 08:38:19;;;;;;;11.00;3.83;;;;;;;20.78;67.90;100539.06;5565137;32;34329;-55
2022/06/01 08:41:28;;;;;;;7.05;4.05;;;;;;;20.91;67.23;100556.94;5563942;32;33692;-55
2022/06/01 08:44:35;;;;;;;5.78;3.55;;;;;;;20.98;66.34;100548.19;5569922;32;34263;-55
2022/06/01 08:47:41;;;;;;;4.90;3.78;;;;;;;20.97;66.82;100557.50;5568372;32;34441;-54
2022/06/01 08:50:44;;;;;;;5.30;3.17;;;;;;;20.95;65.85;100544.22;5567327;32;33419;-55
2022/06/01 08:53:47;;;;;;;4.78;3.55;;;;;;;20.99;65.85;100542.41;5568298;32;33597;-56
2022/06/01 08:56:52;;;;;;;6.32;3.62;;;;;;;21.08;67.58;100537.56;5569096;32;33607;-55
2022/06/01 09:00:11;;;;;;;14.40;4.03;;;;;;;21.24;66.41;100547.75;5569431;32;33100;-54
2022/06/01 09:03:25;;;;;;;6.37;3.90;;;;;;;21.16;66.83;100548.66;5561658;32;33494;-55
2022/06/01 09:06:34;;;;;;;13.03;3.87;;;;;;;21.19;65.75;100553.44;5565338;32;34029;-55
2022/06/01 09:09:59;;;;;;;5.62;3.78;;;;;;;21.24;64.78;100550.47;5567729;32;33917;-55
2022/06/01 09:13:07;;;;;;;5.72;3.17;;;;;;;21.15;65.45;100547.88;5565092;32;33746;-54
2022/06/01 09:16:22;;;;;;;7.37;3.50;;;;;;;21.26;64.23;100553.66;5567519;32;33611;-57
2022/06/01 09:22:59;;;;;;;5.78;3.50;;;;;;;21.26;65.72;100553.66;5566047;32;33703;-56
2022/06/01 09:26:03;;;;;;;7.50;3.78;;;;;;;21.33;64.22;100553.84;5563682;32;33400;-54
2022/06/01 09:29:07;;;;;;;4.40;3.35;;;;;;;21.42;64.67;100545.50;5564793;32;33739;-54
2022/06/01 09:32:25;;;;;;;29.73;3.85;;;;;;;21.51;62.37;100557.84;5569003;32;33686;-55
2022/06/01 09:35:29;;;;;;;5.85;2.80;;;;;;;21.49;61.23;100560.16;5566033;32;33775;-55
2022/06/01 09:38:42;;;;;;;6.28;2.70;;;;;;;21.51;60.55;100554.31;5566819;32;34413;-54
2022/06/01 09:41:44;;;;;;;18.08;3.90;;;;;;;21.58;59.33;100555.31;5567285;32;33611;-55
2022/06/01 09:44:48;;;;;;;3.97;2.78;;;;;;;21.75;61.43;100559.63;5565663;32;34715;-55
2022/06/01 09:48:10;;;;;;;10.75;3.10;;;;;;;21.87;59.16;100555.25;5565236;32;33728;-55
2022/06/01 09:51:22;;;;;;;3.30;2.53;;;;;;;21.89;57.44;100566.63;5563010;32;34442;-55
2022/06/01 09:54:26;;;;;;;3.20;2.55;;;;;;;21.86;56.71;100561.84;5567346;32;33739;-55
2022/06/01 09:57:35;;;;;;;6.70;2.87;;;;;;;21.85;57.94;100563.78;5568653;32;34301;-55
2022/06/01 10:08:06;;;;;;;3.75;2.45;;;;;;;21.85;57.30;100552.84;5562956;32;33745;-56
2022/06/01 10:11:35;;;;;;;4.43;2.75;;;;;;;21.98;55.71;100551.63;5560256;32;34331;-55
2022/06/01 10:14:51;;;;;;;3.35;2.40;;;;;;;22.13;57.69;100554.72;5565294;32;34348;-55
2022/06/01 10:18:05;;;;;;;4.72;2.67;;;;;;;22.17;54.77;100561.06;5565183;32;33722;-54
2022/06/01 10:21:11;;;;;;;7.30;2.55;;;;;;;22.28;52.02;100557.47;5567949;32;33268;-55
2022/06/01 10:24:23;;;;;;;4.07;2.50;;;;;;;22.34;54.66;100563.41;5568191;32;33519;-55
2022/06/01 10:27:39;;;;;;;3.47;2.53;;;;;;;22.40;54.32;100567.47;5568426;32;33267;-55
2022/06/01 10:30:49;;;;;;;6.70;2.55;;;;;;;22.57;55.13;100568.22;5566921;32;34433;-56
2022/06/01 10:34:04;;;;;;;6.03;2.62;;;;;;;22.57;53.48;100565.50;5565099;32;33830;-55
2022/06/01 10:37:32;;;;;;;4.37;2.60;;;;;;;22.42;53.42;100575.31;5567643;32;33828;-55
2022/06/01 10:40:41;;;;;;;4.45;2.60;;;;;;;22.45;54.44;100563.66;5566318;32;33678;-55
2022/06/01 10:44:05;;;;;;;3.75;2.12;;;;;;;22.55;52.25;100559.56;5567371;32;33853;-55
2022/06/01 10:47:36;;;;;;;3.97;2.40;;;;;;;22.49;52.30;100557.12;5563487;32;33804;-55
2022/06/01 10:50:46;;;;;;;5.55;2.58;;;;;;;22.59;52.60;100566.72;5541487;31;34077;-55
2022/06/01 10:54:17;;;;;;;4.10;2.47;;;;;;;22.66;52.70;100558.69;5563988;32;33691;-56
2022/06/01 10:57:20;;;;;;;4.10;2.12;;;;;;;22.84;50.86;100556.31;5556631;32;33594;-55
2022/06/01 11:00:34;;;;;;;3.00;2.22;;;;;;;22.88;50.20;100549.00;5567342;32;34249;-55
2022/06/01 11:03:58;;;;;;;4.60;2.30;;;;;;;22.98;50.16;100553.13;5562394;32;33664;-55
2022/06/01 11:07:29;;;;;;;5.03;2.50;;;;;;;22.98;49.92;100553.13;5560409;32;33690;-54
2022/06/01 11:10:59;;;;;;;3.35;2.22;;;;;;;22.92;51.48;100552.59;5563945;32;34383;-55
2022/06/01 11:14:21;;;;;;;11.88;2.90;;;;;;;;;;5560842;32;34339;-55
2022/06/01 11:17:50;;;;;;;5.35;2.45;;;;;;;22.98;54.50;100548.44;5533285;31;34550;-55
2022/06/01 11:21:06;;;;;;;3.78;2.53;;;;;;;22.96;53.38;100552.69;5558968;32;34392;-55
2022/06/01 11:24:27;;;;;;;3.72;2.65;;;;;;;22.99;52.84;100551.97;5561182;32;33878;-55
2022/06/01 11:27:45;;;;;;;2.25;1.95;;;;;;;23.23;50.54;100550.09;5562988;32;33802;-56
2022/06/01 11:31:03;;;;;;;4.32;2.35;;;;;;;23.18;50.42;100540.25;5559333;32;33328;-56
2022/06/01 11:34:11;;;;;;;3.58;2.33;;;;;;;23.16;50.26;100546.06;5558668;32;34323;-56
2022/06/01 11:37:39;;;;;;;3.58;1.92;;;;;;;23.36;50.51;100549.56;5558953;32;33764;-55
2022/06/01 11:40:57;;;;;;;2.87;2.03;;;;;;;23.44;49.66;100553.19;5564674;32;34276;-55
2022/06/01 11:44:14;;;;;;;4.87;2.12;;;;;;;23.44;49.13;100548.53;5568243;32;34359;-57
2022/06/01 11:47:20;;;;;;;2.33;1.80;;;;;;;23.44;50.48;100542.25;5562211;32;33516;-55
2022/06/01 11:50:32;;;;;;;4.00;2.20;;;;;;;23.32;48.91;100543.22;5564385;32;33693;-56
2022/06/01 11:53:36;;;;;;;3.00;2.10;;;;;;;23.38;48.10;100539.06;5567179;32;31680;-56
2022/06/01 11:56:48;;;;;;;2.62;1.80;;;;;;;23.52;47.46;100543.97;5565813;32;34338;-56
2022/06/01 12:00:13;;;;;;;2.03;1.83;;;;;;;23.51;46.23;100541.59;5560972;32;34346;-55
2022/06/01 12:03:16;;;;;;;3.30;1.90;;;;;;;23.65;45.75;100545.37;5560972;32;33572;-55
2022/06/01 12:06:57;;;;;;;4.65;1.77;;;;;;;23.75;45.11;100540.50;5563445;32;33447;-56
2022/06/01 12:10:04;;;;;;;3.15;1.75;;;;;;;23.79;44.58;100544.88;5549592;32;33388;-56
2022/06/01 12:13:48;;;;;;;3.70;1.55;;;;;;;23.97;44.00;100547.09;5565834;32;34339;-55
2022/06/01 12:17:22;;;;;;;3.90;1.77;;;;;;;24.06;43.91;100544.91;5563374;32;32974;-55
2022/06/01 12:20:33;;;;;;;4.68;1.80;;;;;;;24.13;42.34;100551.28;5568951;32;33787;-56
2022/06/01 12:30:48;;;;;;;2.95;1.62;;;;;;;24.34;42.07;100550.03;5569916;32;34595;-56
2022/06/01 12:34:03;;;;;;;;;;;;;;;24.28;40.74;100538.59;5568998;32;33866;-56
2022/06/01 12:37:08;;;;;;;2.43;2.00;;;;;;;24.27;41.17;100537.03;5566824;32;34686;-55
2022/06/01 12:40:20;;;;;;;2.10;1.90;;;;;;;24.23;42.16;100538.09;5567849;32;33804;-56
2022/06/01 12:43:23;;;;;;;3.75;1.75;;;;;;;24.20;44.24;100531.41;5569745;32;33645;-55
2022/06/01 12:46:30;;;;;;;3.08;1.90;;;;;;;24.35;41.40;100530.47;5568458;32;33697;-55
2022/06/01 12:49:36;;;;;;;2.50;1.80;;;;;;;24.41;42.54;100533.72;5567118;32;33747;-55
2022/06/01 12:52:39;;;;;;;3.12;2.20;;;;;;;24.38;43.63;100528.94;5569465;32;34414;-56
2022/06/01 12:55:43;;;;;;;4.47;1.80;;;;;;;24.28;42.33;100530.38;5565593;32;33717;-55
2022/06/01 12:58:50;;;;;;;2.65;1.67;;;;;;;24.37;41.92;100527.34;5565921;32;34425;-55
2022/06/01 13:02:00;;;;;;;3.45;1.70;;;;;;;24.46;38.74;100529.84;5569491;32;34455;-55
2022/06/01 13:05:13;;;;;;;2.08;1.50;;;;;;;24.52;39.10;100526.44;5566765;32;33703;-55
2022/06/01 13:08:23;;;;;;;2.17;1.92;;;;;;;24.52;38.47;100522.91;5568588;32;33689;-56
2022/06/01 13:11:34;;;;;;;2.42;1.58;;;;;;;24.59;38.79;100521.03;5569649;32;34233;-55
2022/06/01 13:14:36;;;;;;;3.80;2.00;;;;;;;24.65;38.65;100515.25;5567349;32;33696;-56
2022/06/01 13:18:13;;;;;;;4.60;1.73;;;;;;;24.62;39.47;100508.53;5560728;32;32010;-55
2022/06/01 13:21:37;;;;;;;4.72;2.00;;;;;;;24.67;38.87;100510.97;5556305;32;33626;-56
2022/06/01 13:24:45;;;;;;;3.12;1.60;;;;;;;24.78;38.17;100514.63;5566432;31;34220;-55
2022/06/01 13:27:48;;;;;;;1.70;1.40;;;;;;;24.83;38.77;100508.00;5568205;32;33588;-56
2022/06/01 13:30:51;;;;;;;2.50;1.80;;;;;;;24.81;39.08;100511.13;5566051;32;33789;-55
2022/06/01 13:33:58;;;;;;;3.60;1.80;;;;;;;24.80;36.50;100504.09;5567447;32;35181;-55
2022/06/01 13:37:08;;;;;;;3.10;1.45;;;;;;;24.75;37.45;100504.41;5567976;31;34350;-56
2022/06/01 13:40:32;;;;;;;2.40;1.55;;;;;;;24.92;35.79;100507.72;5565327;31;33681;-56
2022/06/01 13:43:43;;;;;;;6.80;1.50;;;;;;;24.97;37.09;100505.44;5567477;32;34455;-56
2022/06/01 13:46:48;;;;;;;3.25;1.50;;;;;;;25.00;35.44;100493.72;5566985;32;34005;-55
2022/06/01 13:49:59;;;;;;;4.05;1.60;;;;;;;25.01;35.18;100480.81;5567595;32;33630;-55
2022/06/01 13:53:12;;;;;;;5.18;1.67;;;;;;;24.94;37.11;100483.47;5567006;32;33689;-56
2022/06/01 13:56:18;;;;;;;3.15;1.40;;;;;;;25.03;33.73;100487.50;5568608;32;34318;-56
2022/06/01 13:59:49;;;;;;;21.85;2.42;;;;;;;25.03;32.82;100482.00;5567664;32;34391;-56
2022/06/01 14:02:55;;;;;;;6.05;1.55;;;;;;;24.96;32.41;100481.91;5568222;32;34044;-55
2022/06/01 14:05:59;;;;;;;13.35;1.92;;;;;;;24.96;34.09;100481.91;5568316;32;33305;-56
2022/06/01 14:09:04;;;;;;;4.55;1.40;;;;;;;25.06;35.76;100480.44;5568270;32;33723;-55
2022/06/01 14:12:11;;;;;;;9.00;1.48;;;;;;;25.06;35.57;100481.22;5565317;32;33956;-56
2022/06/01 14:15:14;;;;;;;8.90;1.83;;;;;;;25.01;36.32;100473.34;5552919;32;34279;-55
2022/06/01 14:18:22;;;;;;;10.02;1.80;;;;;;;25.03;35.37;100471.03;5569169;32;34357;-55
2022/06/01 14:21:25;;;;;;;3.78;1.73;;;;;;;25.06;35.30;100467.53;5563787;32;33994;-56
2022/06/01 14:28:28;;;;;;;3.33;1.52;;;;;;;25.02;36.15;100465.91;5562890;32;35372;-55
2022/06/01 14:31:28;;;;;;;8.27;1.73;;;;;;;25.03;35.71;100464.75;5551013;31;33837;-56
2022/06/01 14:34:31;;;;;;;4.28;1.40;;;;;;;25.11;35.16;100469.16;5556976;32;33631;-55
2022/06/01 14:37:34;;;;;;;15.48;1.70;;;;;;;25.05;34.12;100463.22;5567415;32;33874;-56
2022/06/01 14:40:36;;;;;;;3.55;1.50;;;;;;;25.14;36.94;100459.41;5564663;32;33809;-56
2022/06/01 14:43:40;;;;;;;3.47;1.30;;;;;;;25.18;33.32;100461.00;5565011;32;34388;-55
2022/06/01 14:46:43;;;;;;;1.70;1.20;;;;;;;25.11;33.25;100454.66;5566148;31;33637;-56
2022/06/01 14:49:46;;;;;;;6.80;2.10;;;;;;;25.11;34.21;100457.41;5560246;32;33493;-55
